createdAt,value
2017-08-18T00:00:45.259Z,20.70
2017-08-18T00:03:12.077Z,20.70
2017-08-18T00:05:38.480Z,20.60
2017-08-18T00:08:05.035Z,20.60
2017-08-18T00:10:32.329Z,20.60
2017-08-18T00:12:59.600Z,20.50
2017-08-18T00:15:25.894Z,20.50
2017-08-18T00:17:52.932Z,20.50
2017-08-18T00:20:19.235Z,20.40
2017-08-18T00:22:46.496Z,20.40
2017-08-18T00:25:13.082Z,20.40
2017-08-18T00:27:39.334Z,20.40
2017-08-18T00:30:05.972Z,20.40
2017-08-18T00:32:32.243Z,20.40
2017-08-18T00:34:58.545Z,20.40
2017-08-18T00:37:24.839Z,20.40
2017-08-18T00:39:51.714Z,20.30
2017-08-18T00:42:18.064Z,20.20
2017-08-18T00:44:44.338Z,20.30
2017-08-18T00:47:10.983Z,20.30
2017-08-18T00:49:37.251Z,20.30
2017-08-18T00:52:03.590Z,20.30
2017-08-18T00:54:30.138Z,20.20
2017-08-18T00:56:56.964Z,20.20
2017-08-18T00:59:23.360Z,20.20
2017-08-18T01:01:49.896Z,20.20
2017-08-18T01:04:16.794Z,20.10
2017-08-18T01:06:44.626Z,20.00
2017-08-18T01:09:11.793Z,20.00
2017-08-18T01:11:38.692Z,20.00
2017-08-18T01:14:05.262Z,20.00
2017-08-18T01:16:32.504Z,20.10
2017-08-18T01:19:00.301Z,20.00
2017-08-18T01:21:26.594Z,20.00
2017-08-18T01:23:52.876Z,19.90
2017-08-18T01:26:20.422Z,20.00
2017-08-18T01:28:47.140Z,19.90
2017-08-18T01:31:13.477Z,20.00
2017-08-18T01:33:39.747Z,20.00
2017-08-18T01:36:06.100Z,20.10
2017-08-18T01:38:32.351Z,20.00
2017-08-18T01:40:58.696Z,20.00
2017-08-18T01:43:24.993Z,20.00
2017-08-18T01:45:53.160Z,20.00
2017-08-18T01:48:20.410Z,20.00
2017-08-18T01:50:46.742Z,20.10
2017-08-18T01:53:13.015Z,20.10
2017-08-18T01:55:39.520Z,20.10
2017-08-18T01:58:06.058Z,20.10
2017-08-18T02:00:32.394Z,20.20
2017-08-18T02:02:59.675Z,20.20
2017-08-18T02:05:27.682Z,19.90
2017-08-18T02:07:54.847Z,19.70
2017-08-18T02:10:21.718Z,19.60
2017-08-18T02:12:48.681Z,19.60
2017-08-18T02:15:14.919Z,19.60
2017-08-18T02:17:42.179Z,19.60
2017-08-18T02:20:08.498Z,19.60
2017-08-18T02:22:35.350Z,19.70
2017-08-18T02:25:02.404Z,19.80
2017-08-18T02:27:28.711Z,19.80
2017-08-18T02:29:54.989Z,19.90
2017-08-18T02:32:21.243Z,19.90
2017-08-18T02:34:49.419Z,20.00
2017-08-18T02:37:16.176Z,20.10
2017-08-18T02:39:42.583Z,20.10
2017-08-18T02:42:08.855Z,20.00
2017-08-18T02:44:36.282Z,20.00
2017-08-18T02:47:02.539Z,19.90
2017-08-18T02:49:29.561Z,20.00
2017-08-18T02:51:56.787Z,20.00
2017-08-18T02:54:23.156Z,20.00
2017-08-18T02:56:50.721Z,20.10
2017-08-18T02:59:17.029Z,19.90
2017-08-18T03:11:28.345Z,19.90
2017-08-18T03:13:54.752Z,19.90
2017-08-18T03:16:22.252Z,19.90
2017-08-18T03:18:50.176Z,19.90
2017-08-18T03:21:16.540Z,19.90
2017-08-18T03:23:43.411Z,20.00
2017-08-18T03:26:10.051Z,20.00
2017-08-18T03:28:36.487Z,20.00
2017-08-18T03:31:02.772Z,20.00
2017-08-18T03:33:30.413Z,20.00
2017-08-18T03:35:57.083Z,20.10
2017-08-18T03:38:25.329Z,20.00
2017-08-18T03:40:52.584Z,20.00
2017-08-18T03:43:19.478Z,20.00
2017-08-18T03:45:46.374Z,20.00
2017-08-18T03:48:13.789Z,19.90
2017-08-18T03:50:40.066Z,19.90
2017-08-18T03:53:06.433Z,19.90
2017-08-18T03:55:33.987Z,19.90
2017-08-18T03:58:01.868Z,20.00
2017-08-18T04:00:28.775Z,20.00
2017-08-18T04:02:55.035Z,20.00
2017-08-18T04:05:21.304Z,19.90
2017-08-18T04:07:47.730Z,19.90
2017-08-18T04:10:14.705Z,19.90
2017-08-18T04:12:41.056Z,19.90
2017-08-18T04:15:07.312Z,19.90
2017-08-18T04:17:33.618Z,19.90
2017-08-18T04:20:02.465Z,19.80
2017-08-18T04:22:28.769Z,19.90
2017-08-18T04:24:55.089Z,19.90
2017-08-18T04:27:21.388Z,19.80
2017-08-18T04:29:47.661Z,19.70
2017-08-18T04:32:14.026Z,19.70
2017-08-18T04:34:40.390Z,19.70
2017-08-18T04:37:07.581Z,19.70
2017-08-18T04:39:35.156Z,19.60
2017-08-18T04:42:01.428Z,19.60
2017-08-18T04:44:27.704Z,19.60
2017-08-18T04:46:54.029Z,19.70
2017-08-18T04:49:22.052Z,19.90
2017-08-18T04:51:49.106Z,20.00
2017-08-18T04:54:16.047Z,20.00
2017-08-18T04:56:43.327Z,20.20
2017-08-18T04:59:09.632Z,20.20
2017-08-18T05:11:21.043Z,20.40
2017-08-18T05:13:47.451Z,20.10
2017-08-18T05:16:15.477Z,20.20
2017-08-18T05:18:41.995Z,20.20
2017-08-18T05:21:09.131Z,20.20
2017-08-18T05:23:36.143Z,20.20
2017-08-18T05:26:04.219Z,20.30
2017-08-18T05:28:30.583Z,20.30
2017-08-18T05:30:58.117Z,20.30
2017-08-18T05:33:25.787Z,20.20
2017-08-18T05:35:52.193Z,20.20
2017-08-18T05:38:20.576Z,20.30
2017-08-18T05:40:48.567Z,20.70
2017-08-18T05:43:15.858Z,20.70
2017-08-18T05:45:42.749Z,21.10
2017-08-18T05:48:09.073Z,21.60
2017-08-18T05:50:36.866Z,22.40
2017-08-18T05:53:03.160Z,22.40
2017-08-18T05:55:29.474Z,22.70
2017-08-18T05:57:56.741Z,22.90
2017-08-18T06:00:24.136Z,23.00
2017-08-18T06:02:51.357Z,23.00
2017-08-18T06:05:18.441Z,23.00
2017-08-18T06:07:46.606Z,23.00
2017-08-18T06:10:14.179Z,23.10
2017-08-18T06:12:41.454Z,23.30
2017-08-18T06:15:07.842Z,23.40
2017-08-18T06:17:34.327Z,23.50
2017-08-18T06:20:00.970Z,23.60
2017-08-18T06:22:28.639Z,23.90
2017-08-18T06:24:55.657Z,24.20
2017-08-18T06:27:22.155Z,24.40
2017-08-18T06:29:48.849Z,24.50
2017-08-18T06:32:15.217Z,24.40
2017-08-18T06:34:42.526Z,24.40
2017-08-18T06:37:08.929Z,24.50
2017-08-18T06:39:35.291Z,24.50
2017-08-18T06:42:02.354Z,24.60
2017-08-18T06:44:28.783Z,24.70
2017-08-18T06:46:55.644Z,24.90
2017-08-18T06:49:23.046Z,25.50
2017-08-18T06:51:49.573Z,25.50
2017-08-18T06:54:15.966Z,25.80
2017-08-18T06:56:45.065Z,26.30
2017-08-18T06:59:12.129Z,26.40
2017-08-18T07:01:39.401Z,26.40
2017-08-18T07:04:05.674Z,26.40
2017-08-18T07:06:32.039Z,26.80
2017-08-18T07:08:58.622Z,27.10
2017-08-18T07:11:25.692Z,26.80
2017-08-18T07:13:55.635Z,26.80
2017-08-18T07:16:22.037Z,26.90
2017-08-18T07:18:48.343Z,27.20
2017-08-18T07:21:14.705Z,27.40
2017-08-18T07:23:42.477Z,27.60
2017-08-18T07:26:09.465Z,27.60
2017-08-18T07:28:35.730Z,28.00
2017-08-18T07:31:02.738Z,28.30
2017-08-18T07:33:29.434Z,28.40
2017-08-18T07:35:56.557Z,28.10
2017-08-18T07:38:22.969Z,28.10
2017-08-18T07:40:49.460Z,27.80
2017-08-18T07:43:16.615Z,28.40
2017-08-18T07:45:42.893Z,28.40
2017-08-18T07:48:09.512Z,28.80
2017-08-18T07:50:36.224Z,29.00
2017-08-18T07:53:02.585Z,29.30
2017-08-18T07:55:29.219Z,29.60
2017-08-18T07:57:56.741Z,29.60
2017-08-18T08:00:23.117Z,29.20
2017-08-18T08:02:51.315Z,29.30
2017-08-18T08:05:17.716Z,29.30
2017-08-18T08:07:44.572Z,29.50
2017-08-18T08:10:10.869Z,29.50
2017-08-18T08:12:37.133Z,29.50
2017-08-18T08:15:03.673Z,29.70
2017-08-18T08:17:30.004Z,29.90
2017-08-18T08:19:56.299Z,30.10
2017-08-18T08:22:22.924Z,30.20
2017-08-18T08:24:50.695Z,29.80
2017-08-18T08:27:17.952Z,29.70
2017-08-18T08:29:44.860Z,29.60
2017-08-18T08:32:11.558Z,29.60
2017-08-18T08:34:38.921Z,29.20
2017-08-18T08:37:06.413Z,29.30
2017-08-18T08:39:32.709Z,29.50
2017-08-18T08:41:59.056Z,29.70
2017-08-18T08:44:25.626Z,29.90
2017-08-18T08:46:53.285Z,29.80
2017-08-18T08:49:20.526Z,29.80
2017-08-18T08:51:46.949Z,29.90
2017-08-18T08:54:14.590Z,30.10
2017-08-18T08:56:40.898Z,30.10
2017-08-18T08:59:07.849Z,30.20
2017-08-18T09:01:35.166Z,30.20
2017-08-18T09:04:03.905Z,30.30
2017-08-18T09:06:31.005Z,30.20
2017-08-18T09:08:57.514Z,30.20
2017-08-18T09:11:25.239Z,29.90
2017-08-18T09:13:51.648Z,29.90
2017-08-18T09:16:18.104Z,30.20
2017-08-18T09:18:45.050Z,30.40
2017-08-18T09:21:12.192Z,30.60
2017-08-18T09:23:38.496Z,30.60
2017-08-18T09:26:05.015Z,30.70
2017-08-18T09:28:31.284Z,30.70
2017-08-18T09:30:57.591Z,30.40
2017-08-18T09:33:23.887Z,30.50
2017-08-18T09:35:50.935Z,31.00
2017-08-18T09:38:18.122Z,31.30
2017-08-18T09:40:44.409Z,31.30
2017-08-18T09:43:11.411Z,31.30
2017-08-18T09:45:37.898Z,31.20
2017-08-18T09:48:17.244Z,31.30
2017-08-18T09:50:56.848Z,31.30
2017-08-18T09:53:35.968Z,31.20
2017-08-18T09:56:14.567Z,31.30
2017-08-18T09:58:55.179Z,31.50
2017-08-18T10:01:22.222Z,31.50
2017-08-18T10:03:48.579Z,31.40
2017-08-18T10:06:15.437Z,31.30
2017-08-18T10:08:41.783Z,31.40
2017-08-18T10:11:08.052Z,31.60
2017-08-18T10:13:34.497Z,31.60
2017-08-18T10:16:01.525Z,31.70
2017-08-18T10:18:27.808Z,31.80
2017-08-18T10:20:55.066Z,31.60
2017-08-18T10:23:21.525Z,31.90
2017-08-18T10:25:48.850Z,31.90
2017-08-18T10:28:15.482Z,32.10
2017-08-18T10:30:42.377Z,32.20
2017-08-18T10:33:09.774Z,32.40
2017-08-18T10:35:36.473Z,32.50
2017-08-18T10:38:03.620Z,32.70
2017-08-18T10:40:30.401Z,32.50
2017-08-18T10:42:57.636Z,32.40
2017-08-18T10:45:25.612Z,32.30
2017-08-18T10:47:51.969Z,32.30
2017-08-18T10:50:18.632Z,32.40
2017-08-18T10:52:45.676Z,32.20
2017-08-18T10:55:13.585Z,32.20
2017-08-18T10:57:39.864Z,32.10
2017-08-18T11:00:06.134Z,32.00
2017-08-18T11:02:33.713Z,31.70
2017-08-18T11:05:00.506Z,31.70
2017-08-18T11:07:27.402Z,31.70
2017-08-18T11:09:54.544Z,31.90
2017-08-18T11:12:20.858Z,31.80
2017-08-18T11:14:49.356Z,32.10
2017-08-18T11:17:15.663Z,32.10
2017-08-18T11:19:41.927Z,32.20
2017-08-18T11:22:08.161Z,32.10
2017-08-18T11:24:35.312Z,32.00
2017-08-18T11:27:02.409Z,32.00
2017-08-18T11:29:29.334Z,32.00
2017-08-18T11:31:56.160Z,32.00
2017-08-18T11:34:22.433Z,32.00
2017-08-18T11:36:48.723Z,32.20
2017-08-18T11:39:15.480Z,32.20
2017-08-18T11:41:42.308Z,32.20
2017-08-18T11:44:08.879Z,32.20
2017-08-18T11:46:35.165Z,32.20
2017-08-18T11:49:02.425Z,32.10
2017-08-18T11:51:29.245Z,32.00
2017-08-18T11:53:55.560Z,31.90
2017-08-18T11:56:21.845Z,31.90
2017-08-18T11:58:48.142Z,31.80
2017-08-18T12:01:14.404Z,31.80
2017-08-18T12:03:40.915Z,31.60
2017-08-18T12:06:07.992Z,31.30
2017-08-18T12:08:34.844Z,31.30
2017-08-18T12:11:01.118Z,31.40
2017-08-18T12:13:27.346Z,31.50
2017-08-18T12:15:55.098Z,31.50
2017-08-18T12:18:21.395Z,31.60
2017-08-18T12:20:48.892Z,31.70
2017-08-18T12:23:15.220Z,31.80
2017-08-18T12:25:41.498Z,31.90
2017-08-18T12:28:07.782Z,32.00
2017-08-18T12:30:34.695Z,32.20
2017-08-18T12:33:00.972Z,32.20
2017-08-18T12:35:27.510Z,32.00
2017-08-18T12:37:56.179Z,32.20
2017-08-18T12:40:22.701Z,32.10
2017-08-18T12:42:49.647Z,32.20
2017-08-18T12:45:16.131Z,32.20
2017-08-18T12:47:42.442Z,32.00
2017-08-18T12:50:09.670Z,32.00
2017-08-18T12:52:35.915Z,32.10
2017-08-18T12:55:03.479Z,32.20
2017-08-18T12:57:29.856Z,32.30
2017-08-18T12:59:57.158Z,32.60
2017-08-18T13:02:23.422Z,32.50
2017-08-18T13:04:50.207Z,32.50
2017-08-18T13:07:16.497Z,32.60
2017-08-18T13:09:42.780Z,32.60
2017-08-18T13:12:09.398Z,32.60
2017-08-18T13:14:35.696Z,32.60
2017-08-18T13:17:02.925Z,32.30
2017-08-18T13:19:30.137Z,32.30
2017-08-18T13:21:56.704Z,32.40
2017-08-18T13:24:23.328Z,32.60
2017-08-18T13:26:49.806Z,32.80
2017-08-18T13:29:16.119Z,32.70
2017-08-18T13:31:42.987Z,32.90
2017-08-18T13:43:54.962Z,33.00
2017-08-18T13:46:21.555Z,32.80
2017-08-18T13:48:48.576Z,32.90
2017-08-18T13:51:15.442Z,32.90
2017-08-18T13:53:41.687Z,32.90
2017-08-18T13:56:09.377Z,33.10
2017-08-18T13:58:35.637Z,33.00
2017-08-18T14:01:02.870Z,33.00
2017-08-18T14:03:29.651Z,32.80
2017-08-18T14:05:55.953Z,32.70
2017-08-18T14:08:23.162Z,32.50
2017-08-18T14:10:50.200Z,32.30
2017-08-18T14:13:16.466Z,32.30
2017-08-18T14:15:43.470Z,32.40
2017-08-18T14:18:10.188Z,32.50
2017-08-18T14:20:38.459Z,32.60
2017-08-18T14:23:06.502Z,32.60
2017-08-18T14:25:39.277Z,32.60
2017-08-18T14:28:05.574Z,32.70
2017-08-18T14:30:32.586Z,32.70
2017-08-18T14:32:58.871Z,32.70
2017-08-18T14:35:25.761Z,32.50
2017-08-18T14:37:52.064Z,32.50
2017-08-18T14:40:19.123Z,32.40
2017-08-18T14:42:45.397Z,32.20
2017-08-18T14:45:12.267Z,32.10
2017-08-18T14:47:38.578Z,32.10
2017-08-18T14:50:06.266Z,32.30
2017-08-18T14:52:32.539Z,32.30
2017-08-18T15:07:59.140Z,32.20
2017-08-18T15:10:25.478Z,32.10
2017-08-18T15:12:51.851Z,32.00
2017-08-18T15:15:18.930Z,31.70
2017-08-18T15:17:46.379Z,31.60
2017-08-18T15:20:12.777Z,31.60
2017-08-18T15:22:39.154Z,31.60
2017-08-18T15:25:05.522Z,31.70
2017-08-18T15:27:33.142Z,31.80
2017-08-18T15:29:59.741Z,31.80
2017-08-18T15:32:29.071Z,31.60
2017-08-18T15:34:55.370Z,31.60
2017-08-18T15:37:22.421Z,31.60
2017-08-18T15:39:49.652Z,31.50
2017-08-18T15:42:16.266Z,31.50
2017-08-18T15:44:42.570Z,31.50
2017-08-18T15:47:08.872Z,31.60
2017-08-18T15:49:35.243Z,31.50
2017-08-18T15:52:02.166Z,31.30
2017-08-18T15:54:28.472Z,31.40
2017-08-18T15:56:55.373Z,31.30
2017-08-18T15:59:21.668Z,31.30
2017-08-18T16:01:47.944Z,31.20
2017-08-18T16:04:14.289Z,31.10
2017-08-18T16:06:40.588Z,31.00
2017-08-18T16:09:06.894Z,30.90
2017-08-18T16:11:33.925Z,31.00
2017-08-18T16:14:01.445Z,30.70
2017-08-18T16:16:27.762Z,30.70
2017-08-18T16:18:55.030Z,30.60
2017-08-18T16:21:22.085Z,30.60
2017-08-18T16:23:50.897Z,30.50
2017-08-18T16:26:18.911Z,30.50
2017-08-18T16:28:46.485Z,30.40
2017-08-18T16:31:13.327Z,30.50
2017-08-18T16:33:40.290Z,30.30
2017-08-18T16:36:08.554Z,30.30
2017-08-18T16:38:35.075Z,30.30
2017-08-18T16:41:01.368Z,30.00
2017-08-18T16:43:27.636Z,30.10
2017-08-18T16:45:54.547Z,30.20
2017-08-18T16:48:21.793Z,30.10
2017-08-18T16:50:48.881Z,30.00
2017-08-18T16:53:15.409Z,29.90
2017-08-18T16:55:43.123Z,29.70
2017-08-18T16:58:11.143Z,29.80
2017-08-18T17:00:37.946Z,29.80
2017-08-18T17:03:04.843Z,29.80
2017-08-18T17:05:31.669Z,29.70
2017-08-18T17:07:58.489Z,29.70
2017-08-18T17:10:26.430Z,29.70
2017-08-18T17:12:54.318Z,29.60
2017-08-18T17:15:20.601Z,29.60
2017-08-18T17:17:46.884Z,29.50
2017-08-18T17:20:13.797Z,29.40
2017-08-18T17:22:41.508Z,29.50
2017-08-18T17:25:09.117Z,29.50
2017-08-18T17:27:38.255Z,29.50
2017-08-18T17:30:04.545Z,29.40
2017-08-18T17:32:32.565Z,29.10
2017-08-18T17:35:00.581Z,29.10
2017-08-18T17:37:27.983Z,28.90
2017-08-18T17:39:54.240Z,28.90
2017-08-18T17:42:20.491Z,28.90
2017-08-18T17:44:47.881Z,28.90
2017-08-18T17:47:14.387Z,28.80
2017-08-18T17:49:42.456Z,28.80
2017-08-18T17:52:09.472Z,28.70
2017-08-18T17:54:35.968Z,28.70
2017-08-18T17:57:02.733Z,28.60
2017-08-18T17:59:28.982Z,28.60
2017-08-18T18:01:55.890Z,28.50
2017-08-18T18:04:22.173Z,28.60
2017-08-18T18:06:49.068Z,28.50
2017-08-18T18:09:15.346Z,28.40
2017-08-18T18:11:43.009Z,28.20
2017-08-18T18:14:12.396Z,28.20
2017-08-18T18:16:38.693Z,28.10
2017-08-18T18:19:04.985Z,28.10
2017-08-18T18:21:32.022Z,28.00
2017-08-18T18:23:59.319Z,28.00
2017-08-18T18:26:25.864Z,28.00
2017-08-18T18:28:52.120Z,28.10
2017-08-18T18:31:19.319Z,28.10
2017-08-18T18:33:46.158Z,28.00
2017-08-18T18:36:13.702Z,27.90
2017-08-18T18:38:39.986Z,27.80
2017-08-18T18:41:06.314Z,27.70
2017-08-18T18:43:32.941Z,27.60
2017-08-18T18:46:00.545Z,27.50
2017-08-18T18:48:28.822Z,27.40
2017-08-18T18:50:56.780Z,27.30
2017-08-18T18:53:25.556Z,27.20
2017-08-18T18:55:51.873Z,27.20
2017-08-18T18:58:18.607Z,27.10
2017-08-18T19:00:45.148Z,27.00
2017-08-18T19:05:45.405Z,27.00
2017-08-18T19:08:12.954Z,27.00
2017-08-18T19:10:40.223Z,26.90
2017-08-18T19:13:07.309Z,26.90
2017-08-18T19:15:33.603Z,26.80
2017-08-18T19:18:00.640Z,26.70
2017-08-18T19:20:26.936Z,26.70
2017-08-18T19:22:53.814Z,26.60
2017-08-18T19:25:20.604Z,26.40
2017-08-18T19:27:47.852Z,26.40
2017-08-18T19:30:15.140Z,26.20
2017-08-18T19:32:42.456Z,26.20
2017-08-18T19:35:10.047Z,26.10
2017-08-18T19:37:37.291Z,26.10
2017-08-18T19:40:03.755Z,26.10
2017-08-18T19:42:30.628Z,26.20
2017-08-18T19:44:57.448Z,26.00
2017-08-18T19:47:25.917Z,25.50
2017-08-18T19:49:52.710Z,25.50
2017-08-18T19:52:19.008Z,25.40
2017-08-18T19:54:45.673Z,25.20
2017-08-18T19:57:12.959Z,25.20
2017-08-18T19:59:39.484Z,25.20
2017-08-18T20:02:05.757Z,25.10
2017-08-18T20:04:32.772Z,25.10
2017-08-18T20:06:59.580Z,25.10
2017-08-18T20:09:26.974Z,25.20
2017-08-18T20:11:54.257Z,25.10
2017-08-18T20:14:21.327Z,24.60
2017-08-18T20:16:47.625Z,24.60
2017-08-18T20:19:14.465Z,24.30
2017-08-18T20:21:41.801Z,23.90
2017-08-18T20:24:08.108Z,23.60
2017-08-18T20:26:34.380Z,23.30
2017-08-18T20:29:00.875Z,23.10
2017-08-18T20:31:28.657Z,22.60
2017-08-18T20:33:54.962Z,22.60
2017-08-18T20:36:21.262Z,22.30
2017-08-18T20:38:47.561Z,22.30
2017-08-18T20:41:14.450Z,22.10
2017-08-18T20:43:40.710Z,22.00
2017-08-18T20:46:07.261Z,21.80
2017-08-18T20:48:33.565Z,21.50
2017-08-18T20:51:00.178Z,21.30
2017-08-18T20:53:26.447Z,21.10
2017-08-18T20:55:52.751Z,21.10
2017-08-18T20:58:19.012Z,20.90
2017-08-18T21:00:45.315Z,20.70
2017-08-18T21:03:12.132Z,20.60
2017-08-18T21:05:38.436Z,20.50
2017-08-18T21:08:05.668Z,20.40
2017-08-18T21:10:32.730Z,20.40
2017-08-18T21:12:59.398Z,20.40
2017-08-18T21:15:25.771Z,20.30
2017-08-18T21:17:52.331Z,20.20
2017-08-18T21:20:20.402Z,20.20
2017-08-18T21:22:47.465Z,20.20
2017-08-18T21:25:13.794Z,20.20
2017-08-18T21:27:40.052Z,20.20
2017-08-18T21:30:06.348Z,20.20
2017-08-18T21:32:33.392Z,20.20
2017-08-18T21:34:59.684Z,20.10
2017-08-18T21:37:26.552Z,20.20
2017-08-18T21:39:52.849Z,20.00
2017-08-18T21:42:19.692Z,20.10
2017-08-18T21:44:45.964Z,20.00
2017-08-18T21:47:12.839Z,20.00
2017-08-18T21:49:39.235Z,19.90
2017-08-18T21:52:06.297Z,20.00
2017-08-18T21:54:33.307Z,19.80
2017-08-18T21:57:00.116Z,19.90
2017-08-18T21:59:26.950Z,19.80
2017-08-18T22:01:53.330Z,19.70
2017-08-18T22:04:19.628Z,19.70
2017-08-18T22:06:45.943Z,19.60
2017-08-18T22:09:12.261Z,19.70
2017-08-18T22:11:38.573Z,19.50
2017-08-18T22:14:04.864Z,19.40
2017-08-18T22:16:31.186Z,19.40
2017-08-18T22:18:58.102Z,19.40
2017-08-18T22:21:24.377Z,19.40
2017-08-18T22:23:50.878Z,19.40
2017-08-18T22:26:17.803Z,19.30
2017-08-18T22:28:44.133Z,19.30
2017-08-18T22:31:10.434Z,19.30
2017-08-18T22:33:37.904Z,19.40
2017-08-18T22:36:04.990Z,19.40
2017-08-18T22:38:32.424Z,19.30
2017-08-18T22:40:59.692Z,19.30
2017-08-18T22:43:25.972Z,19.20
2017-08-18T22:45:52.845Z,19.30
2017-08-18T22:48:20.410Z,19.30
2017-08-18T22:50:46.680Z,19.30
2017-08-18T22:53:12.973Z,19.40
2017-08-18T22:55:39.260Z,19.40
2017-08-18T22:58:05.634Z,19.40
2017-08-18T23:00:31.925Z,19.40
2017-08-18T23:02:58.985Z,19.40
2017-08-18T23:05:25.297Z,19.30
2017-08-18T23:07:52.498Z,19.20
2017-08-18T23:10:18.791Z,19.20
2017-08-18T23:12:45.784Z,19.20
2017-08-18T23:15:12.115Z,19.30
2017-08-18T23:17:39.035Z,19.20
2017-08-18T23:20:05.912Z,19.20
2017-08-18T23:22:32.242Z,19.20
2017-08-18T23:24:59.275Z,19.20
2017-08-18T23:27:25.592Z,19.20
2017-08-18T23:29:52.840Z,19.20
2017-08-18T23:32:19.211Z,19.10
2017-08-18T23:34:46.446Z,19.10
2017-08-18T23:37:12.786Z,19.10
2017-08-18T23:39:39.100Z,19.10
2017-08-18T23:42:06.069Z,19.20
2017-08-18T23:44:32.449Z,19.10
2017-08-18T23:46:59.978Z,19.00
2017-08-18T23:49:28.048Z,18.80
2017-08-18T23:51:55.337Z,18.80
2017-08-18T23:54:22.000Z,18.80
2017-08-18T23:56:48.879Z,18.70
2017-08-18T23:59:15.158Z,18.70
